Time;durP1;ratioP1;P1;durP2;ratioP2;P2;SDS_P1;SDS_P2;PMS_P1;PMS_P2;Temp;Humidity;BMP_temperature;BMP_pressure;BME280_temperature;BME280_humidity;BME280_pressure;Samples;Min_cycle;Max_cycle;Signal;HPM_P1;HPM_P2
2023/11/01 00:02:14;;;;;;;4.23;2.03;;;11.60;99.90;;;;;;5075933;28;20220;-57
2023/11/01 00:04:43;;;;;;;3.20;2.27;;;11.60;99.90;;;;;;5086607;28;20202;-59
2023/11/01 00:07:11;;;;;;;5.33;2.47;;;11.60;99.90;;;;;;5089091;28;20219;-58
2023/11/01 00:09:40;;;;;;;5.10;2.33;;;11.50;99.90;;;;;;5084613;28;20211;-59
2023/11/01 00:12:09;;;;;;;8.53;2.60;;;11.50;99.90;;;;;;5085090;28;20228;-59
2023/11/01 00:14:38;;;;;;;9.13;3.10;;;11.60;99.90;;;;;;5090062;28;20222;-58
2023/11/01 00:17:07;;;;;;;7.43;3.10;;;11.60;99.90;;;;;;5087111;28;20223;-59
2023/11/01 00:19:35;;;;;;;8.40;3.10;;;11.60;99.90;;;;;;5088363;28;20192;-59
2023/11/01 00:22:03;;;;;;;8.60;3.07;;;11.60;99.90;;;;;;5084485;28;20191;-60
2023/11/01 00:24:31;;;;;;;7.10;2.97;;;11.50;99.90;;;;;;5089490;28;20306;-58
2023/11/01 00:27:00;;;;;;;11.03;3.50;;;11.50;99.90;;;;;;5084563;28;20281;-59
2023/11/01 00:29:28;;;;;;;8.87;3.73;;;11.50;99.90;;;;;;5087349;28;20216;-59
2023/11/01 00:31:58;;;;;;;10.27;4.47;;;11.50;99.90;;;;;;5086645;28;20307;-59
2023/11/01 00:34:26;;;;;;;11.67;4.97;;;11.50;99.90;;;;;;5092229;28;20196;-59
2023/11/01 00:36:54;;;;;;;11.47;5.57;;;11.50;99.90;;;;;;5091061;28;20215;-58
2023/11/01 00:39:23;;;;;;;12.87;5.67;;;11.50;99.90;;;;;;5083663;28;20230;-58
2023/11/01 00:41:51;;;;;;;16.50;6.90;;;11.50;99.90;;;;;;5084384;28;20326;-59
2023/11/01 00:44:19;;;;;;;14.33;6.43;;;11.40;99.90;;;;;;5090477;28;20211;-59
2023/11/01 00:46:48;;;;;;;17.47;6.83;;;11.50;99.90;;;;;;5089142;28;20195;-59
2023/11/01 00:49:17;;;;;;;17.73;6.73;;;11.50;99.90;;;;;;5087651;28;20241;-58
2023/11/01 00:51:46;;;;;;;20.33;7.27;;;11.50;99.90;;;;;;5085711;28;20239;-58
2023/11/01 00:54:14;;;;;;;16.57;7.77;;;11.50;99.90;;;;;;5085364;28;20227;-58
2023/11/01 00:56:42;;;;;;;17.27;6.97;;;11.50;99.90;;;;;;5085038;28;20211;-58
2023/11/01 00:59:12;;;;;;;14.63;6.87;;;11.50;99.90;;;;;;5087908;28;20227;-60
2023/11/01 01:01:40;;;;;;;17.83;7.40;;;11.50;99.90;;;;;;5083753;28;20660;-59
2023/11/01 01:04:08;;;;;;;14.67;6.77;;;11.50;99.90;;;;;;5089155;28;20589;-59
2023/11/01 01:06:38;;;;;;;12.13;6.53;;;11.50;99.90;;;;;;5083221;28;20682;-58
2023/11/01 01:09:06;;;;;;;13.40;6.50;;;11.50;99.90;;;;;;5084912;28;20223;-59
2023/11/01 01:11:35;;;;;;;17.47;6.57;;;11.50;99.90;;;;;;5089474;28;20219;-59
2023/11/01 01:14:03;;;;;;;15.97;6.37;;;11.50;99.90;;;;;;5085300;28;20645;-59
2023/11/01 01:16:31;;;;;;;16.80;6.33;;;11.60;99.90;;;;;;5085276;28;20198;-59
2023/11/01 01:19:03;;;;;;;17.93;6.30;;;11.60;99.90;;;;;;5090743;28;20219;-59
2023/11/01 01:21:31;;;;;;;14.60;5.90;;;11.60;99.90;;;;;;5086414;28;20207;-58
2023/11/01 01:24:02;;;;;;;13.90;5.67;;;11.70;99.90;;;;;;5083146;28;20569;-57
2023/11/01 01:26:31;;;;;;;10.60;5.33;;;11.70;99.90;;;;;;5088058;28;20242;-58
2023/11/01 01:29:00;;;;;;;12.03;5.77;;;11.70;99.90;;;;;;5068580;28;20211;-58
2023/11/01 01:31:28;;;;;;;13.07;6.30;;;11.70;99.90;;;;;;5085627;28;20188;-58
2023/11/01 01:33:56;;;;;;;15.80;5.73;;;11.80;99.90;;;;;;5086370;28;20310;-59
2023/11/01 01:36:25;;;;;;;14.57;5.90;;;11.90;99.90;;;;;;5089437;28;20747;-58
2023/11/01 01:38:57;;;;;;;14.10;6.37;;;11.90;99.90;;;;;;5080819;28;20212;-58
2023/11/01 01:41:26;;;;;;;17.40;6.10;;;11.90;99.90;;;;;;5084960;28;20255;-58
2023/11/01 01:43:54;;;;;;;19.97;6.23;;;12.00;99.90;;;;;;5090772;28;20302;-58
2023/11/01 01:46:24;;;;;;;21.40;5.80;;;12.00;99.90;;;;;;5086555;28;20213;-58
2023/11/01 01:48:53;;;;;;;17.10;5.70;;;12.10;99.90;;;;;;5077562;28;20216;-58
2023/11/01 01:51:22;;;;;;;17.17;5.83;;;12.10;99.90;;;;;;5084999;28;20314;-58
2023/11/01 01:53:51;;;;;;;18.47;6.27;;;12.10;99.90;;;;;;5088048;28;20310;-58
2023/11/01 01:56:20;;;;;;;20.80;6.20;;;12.20;99.90;;;;;;5073714;28;20634;-58
2023/11/01 01:58:51;;;;;;;24.67;5.93;;;12.20;99.90;;;;;;5084196;28;20261;-59
2023/11/01 02:01:20;;;;;;;17.43;5.70;;;12.30;99.90;;;;;;5086447;28;20234;-59
2023/11/01 02:04:05;;;;;;;16.00;5.37;;;12.30;99.90;;;;;;5086009;28;20259;-58
2023/11/01 02:06:33;;;;;;;22.47;5.87;;;12.30;99.90;;;;;;5090644;28;20221;-57
2023/11/01 02:09:05;;;;;;;11.23;5.30;;;12.30;99.90;;;;;;5086849;28;20218;-57
2023/11/01 02:11:36;;;;;;;27.83;5.27;;;12.40;99.90;;;;;;5085983;28;20223;-57
2023/11/01 02:14:05;;;;;;;22.73;5.30;;;12.40;99.90;;;;;;5085462;28;20300;-58
2023/11/01 02:16:34;;;;;;;18.83;5.90;;;12.40;99.90;;;;;;5089224;28;20282;-58
2023/11/01 02:19:02;;;;;;;19.80;5.17;;;12.40;99.90;;;;;;5084176;28;20204;-57
2023/11/01 02:21:30;;;;;;;17.27;5.40;;;12.40;99.90;;;;;;5069391;28;20222;-57
2023/11/01 02:24:00;;;;;;;20.80;5.60;;;12.40;99.90;;;;;;5086031;28;20728;-57
2023/11/01 02:26:30;;;;;;;27.20;6.00;;;12.40;99.90;;;;;;5081861;28;20215;-57
2023/11/01 02:28:58;;;;;;;19.43;5.40;;;12.40;99.90;;;;;;5089013;28;20219;-57
2023/11/01 02:31:27;;;;;;;17.03;5.13;;;12.50;99.90;;;;;;5086122;28;20199;-58
2023/11/01 02:34:13;;;;;;;21.60;5.83;;;12.50;99.90;;;;;;5080836;28;20226;-58
2023/11/01 02:36:42;;;;;;;12.20;4.63;;;12.50;99.90;;;;;;5086466;28;20214;-58
2023/11/01 02:39:12;;;;;;;22.03;5.30;;;12.50;99.90;;;;;;5084151;28;20231;-58
2023/11/01 02:41:40;;;;;;;21.30;5.13;;;12.50;99.90;;;;;;5083313;28;20567;-58
2023/11/01 02:44:09;;;;;;;21.03;4.33;;;12.50;99.90;;;;;;5088743;28;20585;-58
2023/11/01 02:46:37;;;;;;;18.03;4.53;;;12.50;99.90;;;;;;5082629;28;20199;-58
2023/11/01 02:49:06;;;;;;;19.53;4.30;;;12.50;99.90;;;;;;5086797;28;20275;-58
2023/11/01 02:51:34;;;;;;;14.80;3.87;;;12.50;99.90;;;;;;5082517;28;20211;-57
2023/11/01 02:54:02;;;;;;;13.37;3.90;;;12.50;99.90;;;;;;5085083;28;20253;-57
2023/11/01 02:56:32;;;;;;;14.17;4.20;;;12.50;99.90;;;;;;5085466;28;20230;-58
2023/11/01 02:59:00;;;;;;;16.47;3.70;;;12.50;99.90;;;;;;5081909;28;20306;-58
2023/11/01 03:01:28;;;;;;;22.20;4.13;;;12.50;99.90;;;;;;5082152;28;20193;-58
2023/11/01 03:03:56;;;;;;;21.87;3.70;;;12.50;99.90;;;;;;5085222;28;20318;-58
2023/11/01 03:06:24;;;;;;;15.93;4.17;;;12.40;99.90;;;;;;5085069;28;20247;-58
2023/11/01 03:08:52;;;;;;;9.37;3.37;;;12.40;99.90;;;;;;5081910;28;20223;-58
2023/11/01 03:11:21;;;;;;;17.70;3.87;;;12.40;99.90;;;;;;5082125;28;20607;-58
2023/11/01 03:13:50;;;;;;;11.33;3.60;;;12.40;99.90;;;;;;5084610;28;21088;-58
2023/11/01 03:16:18;;;;;;;14.70;3.97;;;12.40;99.90;;;;;;5089809;28;20191;-58
2023/11/01 03:18:47;;;;;;;16.97;3.70;;;12.40;99.90;;;;;;5081209;28;20223;-58
2023/11/01 03:21:15;;;;;;;14.53;3.73;;;12.40;99.90;;;;;;5084129;28;20224;-58
2023/11/01 03:23:43;;;;;;;9.10;3.70;;;12.40;99.90;;;;;;5085108;28;20221;-58
2023/11/01 03:26:11;;;;;;;15.47;3.67;;;12.40;99.90;;;;;;5085685;28;20207;-58
2023/11/01 03:28:39;;;;;;;17.63;3.90;;;12.40;99.90;;;;;;5082440;28;20282;-57
2023/11/01 03:31:09;;;;;;;13.97;3.40;;;12.40;99.90;;;;;;5087054;28;20188;-58
2023/11/01 03:33:38;;;;;;;18.60;3.27;;;12.40;99.90;;;;;;5084757;28;20265;-58
2023/11/01 03:36:07;;;;;;;12.07;3.50;;;12.40;99.90;;;;;;5083734;28;20229;-58
2023/11/01 03:38:35;;;;;;;15.07;3.80;;;12.40;99.90;;;;;;5085427;28;20219;-58
2023/11/01 03:41:04;;;;;;;14.63;3.50;;;12.40;99.90;;;;;;5085286;28;20226;-57
2023/11/01 03:43:33;;;;;;;15.53;3.57;;;12.40;99.90;;;;;;5086709;28;20198;-58
2023/11/01 03:46:02;;;;;;;14.87;3.37;;;12.40;99.90;;;;;;5087368;28;20207;-58
2023/11/01 03:48:32;;;;;;;17.90;4.00;;;12.30;99.90;;;;;;5084625;28;20218;-57
2023/11/01 03:51:00;;;;;;;15.60;3.37;;;12.30;99.90;;;;;;5087854;28;20216;-58
2023/11/01 03:53:28;;;;;;;14.30;3.20;;;12.30;99.90;;;;;;5086999;28;20215;-58
2023/11/01 03:55:56;;;;;;;10.57;3.77;;;12.30;99.90;;;;;;5088370;28;20690;-59
2023/11/01 03:58:24;;;;;;;12.47;3.40;;;12.30;99.90;;;;;;5090626;28;20194;-58
2023/11/01 04:00:56;;;;;;;18.23;3.67;;;12.30;99.90;;;;;;5089808;28;20303;-58
2023/11/01 04:03:24;;;;;;;17.37;4.40;;;12.20;99.90;;;;;;5084716;28;20231;-58
2023/11/01 04:05:54;;;;;;;11.53;3.57;;;12.30;99.90;;;;;;5086876;28;20219;-58
2023/11/01 04:08:23;;;;;;;13.50;3.30;;;12.20;99.90;;;;;;5083641;28;20250;-57
2023/11/01 04:10:51;;;;;;;13.53;3.73;;;12.30;99.90;;;;;;5083851;28;20189;-58
2023/11/01 04:13:20;;;;;;;16.53;3.50;;;12.20;99.90;;;;;;5089225;28;20189;-59
2023/11/01 04:15:48;;;;;;;17.30;3.50;;;12.20;99.90;;;;;;5087461;28;20215;-58
2023/11/01 04:18:16;;;;;;;16.03;3.50;;;12.20;99.90;;;;;;5089430;28;21229;-58
2023/11/01 04:20:45;;;;;;;9.07;3.23;;;12.20;99.90;;;;;;5090208;28;20751;-59
2023/11/01 04:23:15;;;;;;;12.17;2.90;;;12.20;99.90;;;;;;5091687;28;20211;-58
2023/11/01 04:25:43;;;;;;;20.80;3.53;;;12.20;99.90;;;;;;5070169;28;20207;-58
2023/11/01 04:28:11;;;;;;;21.60;3.93;;;12.20;99.90;;;;;;5088016;28;20214;-58
2023/11/01 04:30:40;;;;;;;17.83;3.67;;;12.10;99.90;;;;;;5091741;28;20219;-57
2023/11/01 04:33:10;;;;;;;17.20;3.33;;;12.10;99.90;;;;;;5073688;28;20219;-58
2023/11/01 04:35:39;;;;;;;15.77;3.33;;;12.10;99.90;;;;;;5086997;28;20266;-59
2023/11/01 04:38:07;;;;;;;14.60;3.40;;;12.10;99.90;;;;;;5085976;28;20618;-57
2023/11/01 04:40:37;;;;;;;14.20;3.10;;;12.20;99.90;;;;;;5092954;28;20207;-57
2023/11/01 04:43:06;;;;;;;11.07;2.97;;;12.20;99.90;;;;;;5087499;28;20179;-58
2023/11/01 04:45:34;;;;;;;19.83;2.87;;;12.20;99.90;;;;;;5088022;28;21985;-58
2023/11/01 04:48:03;;;;;;;13.17;2.93;;;12.20;99.90;;;;;;5085662;28;20785;-58
2023/11/01 04:50:32;;;;;;;20.17;2.80;;;12.30;99.90;;;;;;5084416;28;20213;-58
2023/11/01 04:53:01;;;;;;;16.63;3.10;;;12.30;99.90;;;;;;5087460;28;20228;-58
2023/11/01 04:55:29;;;;;;;17.07;3.40;;;12.30;99.90;;;;;;5082732;28;20196;-59
2023/11/01 04:57:59;;;;;;;15.33;3.10;;;12.30;99.90;;;;;;5088804;28;20215;-59
2023/11/01 05:00:27;;;;;;;14.00;2.90;;;12.40;99.90;;;;;;5089953;28;20219;-58
2023/11/01 05:02:55;;;;;;;12.30;3.00;;;12.30;99.90;;;;;;5084648;28;20330;-57
2023/11/01 05:05:23;;;;;;;14.50;2.83;;;12.30;99.90;;;;;;5088112;28;20304;-57
2023/11/01 05:07:53;;;;;;;12.13;3.00;;;12.30;99.90;;;;;;5088395;28;20290;-58
2023/11/01 05:10:21;;;;;;;14.83;2.83;;;12.30;99.90;;;;;;5091614;28;20183;-58
2023/11/01 05:12:49;;;;;;;11.07;2.90;;;12.30;99.90;;;;;;5085967;28;20219;-58
2023/11/01 05:15:19;;;;;;;17.00;3.03;;;12.30;99.90;;;;;;5084592;28;20708;-58
2023/11/01 05:17:47;;;;;;;10.57;2.77;;;12.40;99.90;;;;;;5085680;28;20569;-58
2023/11/01 05:20:16;;;;;;;20.43;3.67;;;12.40;99.90;;;;;;5085115;28;20230;-59
2023/11/01 05:22:44;;;;;;;11.70;2.83;;;12.40;99.90;;;;;;5083593;28;20283;-57
2023/11/01 05:25:15;;;;;;;14.43;2.97;;;12.40;99.90;;;;;;5087968;28;20203;-58
2023/11/01 05:27:44;;;;;;;10.90;3.30;;;12.40;99.90;;;;;;5091684;28;20221;-58
2023/11/01 05:30:15;;;;;;;15.70;3.30;;;12.40;99.90;;;;;;5089998;28;20565;-58
2023/11/01 05:32:46;;;;;;;16.00;3.33;;;12.40;99.90;;;;;;5082327;28;20230;-58
2023/11/01 05:35:16;;;;;;;14.37;3.23;;;12.50;99.90;;;;;;5089870;28;20245;-58
2023/11/01 05:37:44;;;;;;;16.97;2.83;;;12.50;99.90;;;;;;5087762;28;20191;-58
2023/11/01 05:40:16;;;;;;;11.20;2.80;;;12.50;99.90;;;;;;5085220;28;20519;-58
2023/11/01 05:42:46;;;;;;;11.33;2.63;;;12.50;99.90;;;;;;5086709;28;20280;-59
2023/11/01 05:45:16;;;;;;;15.00;3.03;;;12.60;99.90;;;;;;5091842;28;20207;-59
2023/11/01 05:47:49;;;;;;;12.27;3.10;;;12.60;99.90;;;;;;5086642;28;20226;-59
2023/11/01 05:50:23;;;;;;;16.33;3.00;;;12.60;99.90;;;;;;5085850;28;20893;-59
2023/11/01 05:52:52;;;;;;;10.30;2.70;;;12.60;99.90;;;;;;5083196;28;20278;-58
2023/11/01 05:55:21;;;;;;;14.97;2.93;;;12.60;99.90;;;;;;5085849;28;20189;-58
2023/11/01 05:58:07;;;;;;;12.47;3.10;;;12.60;99.90;;;;;;5085443;28;20226;-58
2023/11/01 06:00:35;;;;;;;6.90;3.03;;;12.60;99.90;;;;;;5044316;28;20239;-58
2023/11/01 06:03:06;;;;;;;13.80;2.93;;;12.60;99.90;;;;;;5065534;28;20336;-59
2023/11/01 06:05:36;;;;;;;9.17;3.10;;;12.60;99.90;;;;;;5060476;28;20598;-58
2023/11/01 06:08:04;;;;;;;9.00;2.90;;;12.60;99.90;;;;;;5070939;28;20230;-58
2023/11/01 06:10:33;;;;;;;13.37;2.57;;;12.60;99.90;;;;;;5081607;28;20199;-58
2023/11/01 06:13:01;;;;;;;13.97;3.33;;;12.60;99.90;;;;;;5083818;28;20216;-58
2023/11/01 06:15:29;;;;;;;14.57;3.40;;;12.60;99.90;;;;;;5084559;28;20226;-59
2023/11/01 06:17:58;;;;;;;11.33;2.60;;;12.50;99.90;;;;;;5085573;28;20272;-59
2023/11/01 06:20:27;;;;;;;13.30;2.77;;;12.50;99.90;;;;;;5070138;28;20216;-58
2023/11/01 06:22:56;;;;;;;12.83;3.20;;;12.50;99.90;;;;;;5086568;28;20253;-59
2023/11/01 06:25:24;;;;;;;8.33;3.10;;;12.50;99.90;;;;;;5081430;28;20222;-59
2023/11/01 06:27:52;;;;;;;12.33;2.67;;;12.60;99.90;;;;;;5081882;28;20216;-59
2023/11/01 06:30:20;;;;;;;18.40;3.13;;;12.60;99.90;;;;;;5070795;28;20273;-59
2023/11/01 06:32:49;;;;;;;13.13;3.10;;;12.50;99.90;;;;;;5061359;28;20212;-58
2023/11/01 06:35:17;;;;;;;15.03;3.17;;;12.50;99.90;;;;;;5063867;28;20859;-58
2023/11/01 06:37:47;;;;;;;11.97;3.03;;;12.50;99.90;;;;;;5064377;28;20196;-59
2023/11/01 06:40:15;;;;;;;9.80;2.67;;;12.50;99.90;;;;;;5064441;28;20266;-58
2023/11/01 06:42:44;;;;;;;13.13;2.97;;;12.60;99.90;;;;;;5068149;28;20266;-59
2023/11/01 06:45:12;;;;;;;16.47;3.37;;;12.60;99.90;;;;;;5067653;28;20693;-58
2023/11/01 06:47:40;;;;;;;8.60;2.27;;;12.60;99.90;;;;;;5076881;28;20211;-59
2023/11/01 06:50:10;;;;;;;19.53;2.80;;;12.50;99.90;;;;;;5086273;28;20219;-59
2023/11/01 06:52:39;;;;;;;15.57;2.90;;;12.50;99.90;;;;;;5085219;28;20215;-58
2023/11/01 06:55:09;;;;;;;11.27;2.50;;;12.50;99.90;;;;;;5083846;28;20187;-59
2023/11/01 06:57:37;;;;;;;11.17;2.30;;;12.50;99.90;;;;;;5077302;28;20220;-58
2023/11/01 07:00:08;;;;;;;10.33;2.70;;;12.50;99.90;;;;;;5084938;28;20215;-58
2023/11/01 07:02:36;;;;;;;9.67;2.70;;;12.50;99.90;;;;;;5081138;28;20231;-58
2023/11/01 07:05:05;;;;;;;12.63;2.40;;;12.50;99.90;;;;;;5082131;28;20663;-59
2023/11/01 07:07:34;;;;;;;12.13;2.60;;;12.60;99.90;;;;;;5084817;28;20193;-58
2023/11/01 07:10:03;;;;;;;10.03;2.57;;;12.60;99.90;;;;;;5090812;28;20196;-59
2023/11/01 07:12:33;;;;;;;6.93;2.50;;;12.70;99.90;;;;;;5082324;28;20236;-59
2023/11/01 07:15:01;;;;;;;9.70;2.20;;;12.70;99.90;;;;;;5084550;28;20212;-58
2023/11/01 07:17:29;;;;;;;14.30;2.63;;;12.70;99.90;;;;;;5063169;28;20222;-59
2023/11/01 07:19:58;;;;;;;10.50;2.40;;;12.80;99.90;;;;;;5084857;28;20247;-59
2023/11/01 07:22:27;;;;;;;6.57;2.10;;;12.80;99.90;;;;;;5084186;28;20668;-59
2023/11/01 07:24:56;;;;;;;7.97;2.53;;;12.80;99.90;;;;;;5090820;28;20305;-58
2023/11/01 07:27:25;;;;;;;9.20;2.77;;;12.90;99.90;;;;;;5085187;28;20230;-59
2023/11/01 07:29:54;;;;;;;7.10;2.50;;;12.90;99.90;;;;;;5085944;28;20223;-58
2023/11/01 07:32:23;;;;;;;8.30;2.30;;;13.00;99.90;;;;;;5087446;28;20689;-59
2023/11/01 07:34:51;;;;;;;8.27;2.70;;;13.00;99.90;;;;;;5090961;28;20286;-59
2023/11/01 07:37:19;;;;;;;13.50;2.67;;;13.10;99.90;;;;;;5069744;28;20188;-58
2023/11/01 07:39:47;;;;;;;13.33;2.70;;;13.20;99.90;;;;;;5069222;28;20224;-60
2023/11/01 07:42:15;;;;;;;11.27;2.43;;;13.20;99.90;;;;;;5084752;28;20227;-59
2023/11/01 07:44:44;;;;;;;13.67;2.43;;;13.30;99.90;;;;;;5088610;28;20215;-59
2023/11/01 07:47:14;;;;;;;10.83;2.50;;;13.40;99.90;;;;;;5084845;28;20219;-59
2023/11/01 07:49:42;;;;;;;13.77;2.63;;;13.40;99.90;;;;;;5085064;28;20195;-59
2023/11/01 07:52:10;;;;;;;6.73;2.30;;;13.30;99.90;;;;;;5088687;28;20187;-60
2023/11/01 07:54:38;;;;;;;9.27;2.37;;;13.30;99.90;;;;;;5087927;28;20223;-58
2023/11/01 07:57:07;;;;;;;7.47;2.13;;;13.30;99.90;;;;;;5087702;28;20693;-59
2023/11/01 07:59:35;;;;;;;8.43;2.30;;;13.30;99.90;;;;;;5087098;28;20307;-59
2023/11/01 08:02:05;;;;;;;8.67;2.77;;;13.30;99.90;;;;;;5083986;28;20222;-59
2023/11/01 08:04:35;;;;;;;9.20;2.70;;;13.30;99.90;;;;;;5080773;28;20916;-58
2023/11/01 08:07:03;;;;;;;7.70;2.73;;;13.30;99.90;;;;;;5084442;28;20243;-59
2023/11/01 08:09:32;;;;;;;12.00;2.23;;;13.30;99.90;;;;;;5085513;28;20244;-58
2023/11/01 08:12:00;;;;;;;13.50;2.80;;;13.30;99.90;;;;;;5085582;28;20243;-59
2023/11/01 08:14:28;;;;;;;7.50;2.53;;;13.40;99.90;;;;;;5087215;28;20577;-58
2023/11/01 08:16:56;;;;;;;9.30;2.20;;;13.40;99.90;;;;;;5087872;28;20215;-59
2023/11/01 08:19:25;;;;;;;10.30;2.70;;;13.50;99.90;;;;;;5090801;28;20658;-59
2023/11/01 08:21:54;;;;;;;7.93;2.57;;;13.60;99.90;;;;;;5091421;28;20211;-58
2023/11/01 08:24:22;;;;;;;6.43;2.03;;;13.70;99.90;;;;;;5085463;28;20225;-59
2023/11/01 08:26:51;;;;;;;7.07;2.70;;;13.70;99.90;;;;;;5088777;28;20586;-59
2023/11/01 08:29:19;;;;;;;7.40;2.30;;;13.70;99.90;;;;;;5082486;28;20701;-59
2023/11/01 08:31:48;;;;;;;8.70;1.87;;;13.70;99.90;;;;;;5085770;28;20535;-59
2023/11/01 08:34:16;;;;;;;5.27;2.07;;;13.80;99.90;;;;;;5088041;28;20193;-59
2023/11/01 08:36:45;;;;;;;13.87;2.53;;;13.90;99.90;;;;;;5085557;28;20231;-59
2023/11/01 08:39:15;;;;;;;6.10;2.10;;;14.00;99.90;;;;;;5086800;28;20585;-58
2023/11/01 08:41:43;;;;;;;5.07;1.83;;;14.10;99.90;;;;;;5085053;28;20223;-59
2023/11/01 08:44:13;;;;;;;8.80;2.47;;;14.20;99.90;;;;;;5083763;28;20243;-58
2023/11/01 08:46:41;;;;;;;8.33;2.20;;;14.30;99.90;;;;;;5086083;28;20194;-60
2023/11/01 08:49:11;;;;;;;7.43;2.37;;;14.30;99.90;;;;;;5082866;28;20185;-59
2023/11/01 08:51:39;;;;;;;5.67;2.03;;;14.40;99.90;;;;;;5086180;28;20342;-59
2023/11/01 08:54:09;;;;;;;6.43;2.00;;;14.40;99.90;;;;;;5088528;28;20301;-59
2023/11/01 08:56:38;;;;;;;10.03;2.40;;;14.40;99.90;;;;;;5087298;28;20227;-59
2023/11/01 08:59:07;;;;;;;6.13;1.80;;;14.40;99.90;;;;;;5086085;28;20223;-59
2023/11/01 09:01:35;;;;;;;5.17;1.67;;;14.30;99.90;;;;;;5086042;28;20226;-59
2023/11/01 09:04:04;;;;;;;12.33;2.10;;;14.30;99.90;;;;;;5085876;28;20256;-59
2023/11/01 09:06:34;;;;;;;7.00;2.00;;;14.30;99.90;;;;;;5083677;28;20234;-59
2023/11/01 09:09:02;;;;;;;6.37;2.23;;;14.30;99.90;;;;;;5081091;28;20246;-58
2023/11/01 09:11:30;;;;;;;7.17;2.10;;;14.20;99.90;;;;;;5086415;28;20261;-59
2023/11/01 09:14:00;;;;;;;6.47;2.27;;;14.20;99.90;;;;;;5089300;28;20304;-58
2023/11/01 09:16:28;;;;;;;11.00;2.10;;;14.30;99.90;;;;;;5089167;28;20204;-59
2023/11/01 09:18:57;;;;;;;6.87;2.17;;;14.30;99.90;;;;;;5083984;28;20233;-58
2023/11/01 09:21:26;;;;;;;6.03;2.07;;;14.40;99.90;;;;;;5089558;28;20701;-59
2023/11/01 09:23:54;;;;;;;10.80;2.23;;;14.40;99.90;;;;;;5086180;28;20215;-59
2023/11/01 09:26:22;;;;;;;7.60;2.33;;;14.40;99.90;;;;;;5087968;28;20244;-58
2023/11/01 09:28:50;;;;;;;10.43;2.37;;;14.40;99.90;;;;;;5089599;28;20240;-58
2023/11/01 09:31:20;;;;;;;4.07;1.70;;;14.60;99.90;;;;;;5083537;28;20183;-59
2023/11/01 09:33:49;;;;;;;7.30;2.47;;;14.70;99.90;;;;;;5083035;28;20220;-59
2023/11/01 09:36:18;;;;;;;1.63;1.53;;;14.80;99.90;;;;;;5070165;28;20598;-58
2023/11/01 09:38:46;;;;;;;9.33;2.37;;;14.90;99.90;;;;;;5083317;28;20312;-58
2023/11/01 09:41:22;;;;;;;6.37;2.20;;;15.00;99.90;;;;;;5084450;28;20252;-58
2023/11/01 09:43:52;;;;;;;5.63;1.70;;;15.00;97.20;;;;;;5088599;28;20202;-58
2023/11/01 09:46:22;;;;;;;4.93;1.90;;;15.00;99.90;;;;;;5081912;28;20320;-59
2023/11/01 09:48:53;;;;;;;4.43;2.17;;;15.10;99.20;;;;;;5087118;28;20330;-58
2023/11/01 09:51:23;;;;;;;6.60;1.77;;;15.20;99.10;;;;;;5084095;28;20213;-60
2023/11/01 09:53:52;;;;;;;4.60;1.50;;;15.30;95.00;;;;;;5082171;28;20219;-59
2023/11/01 09:56:24;;;;;;;2.97;1.67;;;15.30;93.30;;;;;;5084060;28;20218;-59
2023/11/01 09:58:58;;;;;;;5.93;2.00;;;15.30;93.30;;;;;;5089097;28;20193;-59
2023/11/01 10:01:28;;;;;;;9.97;2.53;;;15.20;94.20;;;;;;5085395;28;20197;-59
2023/11/01 10:03:57;;;;;;;6.33;1.93;;;15.10;90.30;;;;;;5083681;28;20239;-59
2023/11/01 10:06:28;;;;;;;6.47;1.47;;;15.10;92.10;;;;;;5082985;28;20231;-58
2023/11/01 10:08:56;;;;;;;4.70;1.90;;;15.10;92.20;;;;;;5082954;28;20222;-59
2023/11/01 10:11:25;;;;;;;6.70;2.13;;;15.20;95.30;;;;;;5087040;28;20271;-59
2023/11/01 10:13:57;;;;;;;3.57;2.10;;;15.30;92.00;;;;;;5085863;28;20286;-59
2023/11/01 10:16:25;;;;;;;8.60;2.20;;;15.50;75.60;;;;;;5086269;28;20193;-59
2023/11/01 10:18:55;;;;;;;11.20;1.93;;;15.60;59.80;;;;;;5082703;28;20317;-59
2023/11/01 10:21:27;;;;;;;5.47;1.90;;;15.70;74.80;;;;;;5088657;28;20580;-59
2023/11/01 10:23:57;;;;;;;5.20;1.70;;;15.80;64.80;;;;;;5084449;28;20700;-59
2023/11/01 10:26:28;;;;;;;7.13;2.20;;;15.90;52.60;;;;;;5086646;28;20607;-59
2023/11/01 10:28:57;;;;;;;4.27;1.53;;;16.00;45.00;;;;;;5079962;28;20222;-59
2023/11/01 10:31:26;;;;;;;2.53;1.37;;;16.00;30.50;;;;;;5069266;28;20198;-59
2023/11/01 10:33:55;;;;;;;4.57;1.63;;;16.20;29.50;;;;;;5082379;28;20210;-58
2023/11/01 10:36:24;;;;;;;8.13;1.73;;;16.20;33.20;;;;;;5081221;28;20696;-59
2023/11/01 10:38:54;;;;;;;3.13;1.40;;;16.10;25.80;;;;;;5081939;28;20225;-58
2023/11/01 10:41:23;;;;;;;3.53;1.60;;;16.20;21.70;;;;;;5084177;28;20225;-59
2023/11/01 10:43:52;;;;;;;4.50;1.50;;;16.10;20.80;;;;;;5086824;28;20775;-58
2023/11/01 10:46:20;;;;;;;5.37;1.63;;;16.10;14.80;;;;;;5088544;28;20225;-58
2023/11/01 10:48:51;;;;;;;5.60;1.63;;;16.00;16.70;;;;;;5085443;28;20222;-59
2023/11/01 10:51:21;;;;;;;4.87;1.50;;;15.90;26.80;;;;;;5066016;28;20229;-58
2023/11/01 10:53:51;;;;;;;3.63;1.60;;;15.90;27.00;;;;;;5083276;28;20221;-58
2023/11/01 10:56:19;;;;;;;2.60;1.40;;;15.90;35.10;;;;;;5082097;28;20222;-58
2023/11/01 10:58:50;;;;;;;5.67;1.90;;;16.10;38.60;;;;;;5088155;28;20252;-58
2023/11/01 11:01:32;;;;;;;5.97;1.70;;;16.20;10.70;;;;;;5086024;28;20285;-58
2023/11/01 11:04:10;;;;;;;2.67;1.53;;;16.10;23.10;;;;;;5086742;28;20608;-58
2023/11/01 11:06:49;;;;;;;4.30;1.77;;;16.00;23.20;;;;;;5079194;28;20217;-59
2023/11/01 11:09:25;;;;;;;4.33;1.60;;;15.90;24.60;;;;;;5083323;28;20243;-59
2023/11/01 11:12:15;;;;;;;5.77;1.60;;;15.70;13.70;;;;;;5083594;28;20221;-59
2023/11/01 11:14:45;;;;;;;5.20;1.70;;;15.60;22.60;;;;;;5086306;28;20216;-59
2023/11/01 11:17:16;;;;;;;4.40;1.90;;;15.50;35.80;;;;;;5068253;28;20308;-59
2023/11/01 11:20:12;;;;;;;5.07;1.67;;;15.50;39.80;;;;;;5078597;28;20191;-59
2023/11/01 11:23:11;;;;;;;4.90;1.83;;;15.60;45.70;;;;;;5079255;28;20194;-59
2023/11/01 11:25:49;;;;;;;8.60;1.67;;;16.00;35.30;;;;;;5081725;28;20190;-59
2023/11/01 11:28:48;;;;;;;3.50;1.60;;;16.10;7.70;;;;;;5083632;28;20235;-59
2023/11/01 11:31:18;;;;;;;4.60;1.50;;;16.20;18.10;;;;;;5001064;28;20566;-59
2023/11/01 11:34:12;;;;;;;3.83;1.40;;;16.20;13.60;;;;;;5067851;28;20214;-60
2023/11/01 11:37:05;;;;;;;4.97;1.80;;;16.10;9.90;;;;;;5082277;28;20733;-60
2023/11/01 11:40:06;;;;;;;4.97;1.70;;;16.00;11.80;;;;;;5084038;28;20219;-59
2023/11/01 11:42:51;;;;;;;5.47;1.50;;;15.90;15.80;;;;;;5083324;28;20221;-60
2023/11/01 11:45:30;;;;;;;3.73;1.80;;;15.70;20.10;;;;;;5081936;28;20219;-60
2023/11/01 11:47:59;;;;;;;4.77;1.80;;;15.60;30.40;;;;;;5082927;28;20313;-60
2023/11/01 11:50:34;;;;;;;4.57;1.80;;;15.60;34.50;;;;;;5081725;28;20740;-59
2023/11/01 11:53:04;;;;;;;4.73;1.57;;;15.50;16.10;;;;;;5085454;28;20309;-60
2023/11/01 11:55:50;;;;;;;6.00;1.60;;;15.40;29.60;;;;;;5084720;28;20320;-58
2023/11/01 11:58:28;;;;;;;3.53;1.63;;;15.30;32.70;;;;;;5086606;28;20213;-59
2023/11/01 12:01:02;;;;;;;3.83;1.77;;;15.30;37.60;;;;;;5086656;28;20291;-59
2023/11/01 12:03:38;;;;;;;6.97;1.97;;;15.20;29.60;;;;;;5080189;28;20587;-58
2023/11/01 12:06:19;;;;;;;6.63;1.83;;;15.10;43.80;;;;;;5085133;28;20702;-59
2023/11/01 12:08:52;;;;;;;7.30;1.80;;;15.00;52.20;;;;;;5084063;28;20311;-59
2023/11/01 12:11:28;;;;;;;2.23;1.50;;;14.90;57.80;;;;;;5064497;28;20222;-59
2023/11/01 12:13:58;;;;;;;4.40;1.80;;;14.80;62.30;;;;;;5067586;28;20312;-59
2023/11/01 12:16:29;;;;;;;8.27;2.23;;;14.80;94.60;;;;;;5067715;28;20291;-60
2023/11/01 12:19:13;;;;;;;4.03;1.73;;;14.60;99.90;;;;;;5085830;28;20679;-60
2023/11/01 12:21:45;;;;;;;3.17;1.90;;;14.40;99.90;;;;;;5088106;28;20222;-59
2023/11/01 12:24:19;;;;;;;5.87;1.80;;;14.20;99.90;;;;;;5086105;28;20703;-58
2023/11/01 12:27:00;;;;;;;5.50;1.80;;;14.10;99.90;;;;;;5090245;28;20232;-61
2023/11/01 12:29:43;;;;;;;4.60;2.10;;;14.00;99.90;;;;;;5070124;28;20236;-59
2023/11/01 12:32:17;;;;;;;4.60;1.70;;;13.90;99.90;;;;;;5084905;28;20571;-59
2023/11/01 12:35:05;;;;;;;5.93;1.83;;;13.80;99.90;;;;;;5087781;28;20219;-59
2023/11/01 12:37:41;;;;;;;6.23;1.90;;;13.80;99.90;;;;;;5091903;28;20587;-58
2023/11/01 12:40:15;;;;;;;3.77;1.60;;;13.80;99.90;;;;;;5085262;28;20187;-59
2023/11/01 12:43:11;;;;;;;4.97;1.80;;;13.80;99.90;;;;;;5081603;28;20219;-59
2023/11/01 12:45:40;;;;;;;3.03;1.57;;;13.80;99.90;;;;;;5085135;28;20273;-59
2023/11/01 12:48:12;;;;;;;3.10;1.80;;;13.70;99.90;;;;;;5088399;28;20216;-59
2023/11/01 12:50:41;;;;;;;4.97;1.80;;;13.60;99.90;;;;;;5084074;28;20220;-59
2023/11/01 12:53:09;;;;;;;3.03;1.70;;;13.60;99.90;;;;;;5085829;28;20361;-59
2023/11/01 12:55:41;;;;;;;2.77;1.47;;;13.70;99.90;;;;;;5064500;28;20191;-58
2023/11/01 12:58:11;;;;;;;5.90;1.83;;;13.60;99.90;;;;;;5085552;28;20188;-59